Scroll down
FLIGHT INFORMATION
Sky Gates Airlines

SAY725

At Arrival Gate

UUEE
 EDDS
DATE: 2020-07-25
GATE:  -
GATE DEPARTURE: 14:37
TAKEOFF: 14:41
DATE: 2020-07-25
GATE:  -
LANDING: 17:29
GATE ARRIVAL: 17:38
FLIGHT DATA
Crew: MARC EHNLE
Speed: 498 kts Altitude: 38000 ft
Stage Length: 1113 nm
Route: UUEE BG TU SUPEK TEGLU LEGSI BENIM RAMBE LAFAT UPASI VABER SUW KULEK MAGAN IDEXU GOVEN BUKIG KOBUS BEBKU PIKIB ABKIS NOKSI PEROX NURGO URONA UNAVI KULOK ERETO ANELA KEGOS AMOSA ODEGU DKB GEBNO EDDS
Block Time: 3 Flight Time: 2.8
Fuel Used: 62392 LB
TRACK DATA
50000 FT1000 KT
AIRCRAFT INFORMATION
Aircraft Type: B744F
Registration: VP-BCI
SELCAL:  MSN/LN: 32571 / 1271
Operator: SKY GATES AIRLINES
Flights: 6 Block Time: 49.8 Flight Time: 48.6
Fuel Used: 298369 LB
  • DEPARTURE INFORMATION
    Date: 2020-07-25
    Airport: UUEE
    Gate:  -
    Gate Departure: 14:37
    Takeoff: 14:41
    ARRIVAL INFORMATION
    Date: 2020-07-25
    Airport: EDDS
    Gate:  -
    Landing: 17:29
    Gate Arrival: 17:38
  • FLIGHT DATA
    Crew: MARC EHNLE
    Speed: 498 kts Altitude: 38000 ft
    Stage Length: 601 nm
    Route: UUEE BG TU SUPEK TEGLU LEGSI BENIM RAMBE LAFAT UPASI VABER SUW KULEK MAGAN IDEXU GOVEN BUKIG KOBUS BEBKU PIKIB ABKIS NOKSI PEROX NURGO URONA UNAVI KULOK ERETO ANELA KEGOS AMOSA ODEGU DKB GEBNO EDDS
    Block Time: 3 Flight Time: 2.8
    Fuel Used: 62392 LB
  • AIRCRAFT INFORMATION
    Aircraft Type: B744F
    Registration: VP-BCI
    SELCAL:  MSN/LN: 32571 / 1271
    Operator: Sky Gates Airlines
    Flights: 6 Block Time: 49.8 Flight Time: 48.6
    Fuel Used: 298369 LB

DATALINK LOG | Newest first | Current as of: 2020-09-28 19:41:10
LABEL SEQUENCE CONTENT Dn/Up
QD403417:38 56.9▼ Dn
QC312517:29▼ Dn
2U1012EDDS 251520Z 05008KT 360V070 CAVOK 26/11 Q1013 NOSIG▲ Up
2S1206EDDS▼ Dn
2U3114EDDS 251520Z 05008KT 360V070 CAVOK 26/11 Q1013 NOSIG▲ Up
2S3332EDDS▼ Dn
GA3135ADVANCED GATE ASSIGNMENTS NOT YET AVAILABLE AT THIS AIRPORT▲ Up
GR3135EDDS 17:24 MAAS YP/UM WCHR/S/C HI-VAL NO DIPL/VIP NO▼ Dn
5R2827IDEXU 16:25z FL380 GOVEN 16:37z BUKIG M0.83 34.4 -59 269/25 EDDS 17:24z▼ Dn
QB434714:41▼ Dn
QA394314:37 119.3▼ Dn
A30823CLEARED TO EDDS VIA BG3J BG L29 SUW L735 GOVEN P31 KOBUS Z220 BEBKU Z36 PIKIB Z715 ERETO UZ160 ANELA UN869 DKB Z818 GEBNO. SQUAWK .▲ Up
B30813UUEE EDDS SAY725 VPBCI ▼ Dn
2U0524UUEE 251430Z 23004MPS CAVOK 21/08 Q1017 R24L/CLRD62 NOSIG▲ Up
2S0712UUEE▼ Dn
Q00510[LINK ACK]▲ Up
Q00510[LINK TEST]▼ Dn


AIRCRAFT HISTORY
FLIGHT DATE FLIGHT NO. ORIGIN DESTINATION ROUTE BLOCK TIME FLIGHT TIME FUEL USED (LB) PILOT
2020-08-15SAY815EDDS ENGM EDDS OKIBA ROLSO RIMKI LOHRE ARNIX FUL MASEK KEMAD PIBUL MEGAR SABAK XENTA REGMA LUNIP ENGM21.945149Marc Ehnle
2020-07-25SAY725UUEE EDDS UUEE BG TU SUPEK TEGLU LEGSI BENIM RAMBE LAFAT UPASI VABER SUW KULEK MAGAN IDEXU GOVEN BUKIG KOBUS BEBKU PIKIB ABKIS NOKSI PEROX NURGO URONA UNAVI KULOK ERETO ANELA KEGOS AMOSA ODEGU DKB GEBNO EDDS32.862392Marc Ehnle
2020-03-14SAY306LIRF UUEE LIRF TIBER INTUD GOTMO IBENI IPKIS KOPRY SUNOR DEMOP PODAN ODRAP USTIL AMIRI PNK OGARA TAZIP DELON NASKA REKTA DEDOK SODKO ABKOM PASUD MOSON KOMOG RUBAG GUBON FK UUEE3.12.874216Robert S. Randazzo
2019-03-18SAY317ESSA LIRF ESSA NOSLI TONSA ABAMA MOKNI NEMBA DEKIK ETPIG ELVIX BIKRU RAKIT MAREM PEMEL RUDAP BARIX BAMTA DEGIN DOSEL TULSI BERAS MIMVI LIZUM LIKDA VESAL GAVRA RITEB LIRF3.5360302Aaron Buchanan
2019-03-13SAY312EFHK ESSA EFHK ADIVO PEPIG POGOK RUNGA XILAN ESSA1.20.818577Aaron Buchanan
2019-03-03SAY302UUDD EFHK UUDD LO GOTMA ARSEP UM AR BELAG OLIDI GAPSA ROMEL KUDIM GUBIT PIKAM ATBUR ORTOK NOTAR SUMIM ULKOX BIRSI LEMLA GEPTA INTOR EFHK1.81.637734Aaron Buchanan